SBKG/CPV METAR and TAF weather

Enter ICAO airport designator
Station Type Date Time Source
SBKG METAR 2020/09/23 00:00 UTC NOAA

SBKG 230000Z 09008KT CAVOK 21/19 Q1019


Station Type Date Time Source
SBKG Decoded METAR 2020/09/23 00:00 UTC NOAA

Campina Grande, Brazil (SBKG) 07-13S 035-53W
Sep 22, 2020 - 08:00 PM EDT / 2020.09.23 0000 UTC
Wind: from the E (090 degrees) at 9 MPH (8 KT):0
Visibility: greater than 7 mile(s):0
Temperature: 69 F (21 C)
Dew Point: 66 F (19 C)
Relative Humidity: 88%
Pressure (altimeter): 30.09 in. Hg (1019 hPa)
ob: SBKG 230000Z 09008KT CAVOK 21/19 Q1019
cycle: 0

Station Type Date Time Source
SBKG TAF 2020/09/22 18:27 UTC NOAA

TAF SBKG 221520Z 2218/2306 11012KT 9999 SCT030 TX29/2218Z TN22/2223Z
BECMG 2221/2223 08015KT CAVOK
RMK PHN

Example: see airport list